Observations for Trim Market St
| Time | AQI | Temp °C | Hum % | Pres Pa | CO μg/m³ | H₂S μg/m³ | NO μg/m³ | NO₂ μg/m³ | O₃ μg/m³ | SO₂ μg/m³ | PM1 μg/m³ | PM2.5 μg/m³ | PM10 μg/m³ |
|---|---|---|---|---|---|---|---|---|---|---|---|---|---|
| Thursday 9 July 2026 | |||||||||||||
| 04:41 | 1 | 16.7 | 75 | 35,289 | 0.08 | 0 | 0 | 3.78 | 12.86 | 0 | 2.14 | 4.23 | 6.94 |
| 04:40 | 1 | 16.7 | 75 | 35,754 | 0.08 | 0 | 0 | 6.38 | 14.86 | 0 | 2.85 | 5.67 | 8.72 |
| 04:39 | 1 | 16.7 | 75 | 36,222 | 0.09 | 0 | 0 | 6.29 | 17.47 | 0 | 1.43 | 3.28 | 5.74 |
| 04:38 | 1 | 16.7 | 75 | 36,649 | 0.08 | 0 | 0.01 | 4.69 | 11.46 | 0 | 0.71 | 2.8 | 5.15 |
| 04:36 | 1 | 16.7 | 75 | 37,245 | 0.07 | 0 | 0 | 4.2 | 11.29 | 0 | 2.14 | 3.29 | 5.74 |
| 04:33 | 1 | 16.7 | 75 | 38,110 | 0.08 | 0 | 0 | 5.42 | 16.77 | 0 | 1.43 | 2.81 | 5.14 |
| 04:32 | 1 | 16.7 | 75 | 38,403 | 0.06 | 0 | 0 | 3.22 | 13.27 | 0 | 1.43 | 3.77 | 6.34 |
| 04:31 | 1 | 16.7 | 75 | 38,599 | 0.07 | 0 | 0 | 3.63 | 14.25 | 0 | 1.43 | 3.3 | 5.74 |
| 04:30 | 1 | 16.7 | 75 | 38,819 | 0.08 | 0 | 0.23 | 2.04 | 12.44 | 0 | 0.71 | 2.34 | 4.54 |
| 04:29 | 1 | 16.7 | 75 | 39,042 | 0.08 | 0 | 0 | 8.23 | 14.12 | 0 | 2.14 | 4.26 | 6.93 |
| 04:26 | 1 | 16.7 | 75 | 39,366 | 0.06 | 0 | 0 | 4.84 | 9.99 | 0 | 1.43 | 3.78 | 6.34 |
| 04:25 | 1 | 16.7 | 75 | 39,571 | 0.07 | 0 | 0.06 | 4.75 | 15.28 | 0 | 2.14 | 3.31 | 5.74 |
| 04:24 | 1 | 16.7 | 75 | 39,672 | 0.07 | 0 | 0 | 3.15 | 13.34 | 0 | 1.43 | 4.27 | 8.13 |
| 04:23 | 1 | 16.7 | 75 | 39,808 | 0.07 | 0 | 0 | 5.95 | 19.35 | 0 | 2.14 | 5.22 | 9.33 |
| 04:11 | 1 | 16.7 | 74 | 40,883 | 0.03 | 0 | 0 | 4.41 | 13.63 | 0 | 1.43 | 3.81 | 6.33 |
| 04:10 | 1 | 16.7 | 74 | 41,088 | 0.02 | 0 | 0 | 1.81 | 16.24 | 0 | 1.43 | 5.25 | 8.13 |
| 04:09 | 1 | 16.7 | 74 | 41,247 | 0.02 | 0 | 0 | 6.71 | 13.35 | 0 | 2.14 | 3.81 | 6.93 |
| 04:08 | 1 | 16.8 | 74 | 41,514 | 0.01 | 0 | 0 | 1.89 | 15.72 | 0 | 0.71 | 3.82 | 6.33 |
| 04:07 | 1 | 16.7 | 74 | 41,697 | 0.03 | 0 | 0 | 4.72 | 14.1 | 0 | 2.14 | 3.34 | 5.73 |
| 04:06 | 1 | 16.7 | 74 | 41,979 | 0.01 | 0 | 0.39 | 3.02 | 16.9 | 0 | 0.71 | 2.86 | 5.12 |